createdAt,value
2018-07-24T00:04:39.657Z,93.20
2018-07-24T00:09:42.878Z,93.20
2018-07-24T00:14:46.082Z,93.00
2018-07-24T00:19:49.244Z,93.00
2018-07-24T00:24:52.461Z,93.30
2018-07-24T00:29:55.678Z,93.50
2018-07-24T00:34:59.014Z,93.50
2018-07-24T00:40:02.257Z,93.40
2018-07-24T00:45:14.826Z,93.60
2018-07-24T00:50:17.989Z,93.80
2018-07-24T00:55:21.178Z,93.80
2018-07-24T01:00:24.377Z,93.70
2018-07-24T01:05:27.533Z,93.90
2018-07-24T01:10:30.798Z,93.80
2018-07-24T01:20:37.091Z,94.00
2018-07-24T01:25:40.269Z,93.90
2018-07-24T01:30:43.442Z,94.00
2018-07-24T01:35:46.610Z,94.40
2018-07-24T01:40:49.861Z,94.30
2018-07-24T01:45:53.063Z,94.40
2018-07-24T01:50:56.271Z,94.50
2018-07-24T01:55:59.421Z,94.80
2018-07-24T02:01:02.901Z,94.70
2018-07-24T02:06:06.362Z,94.70
2018-07-24T02:11:09.542Z,95.20
2018-07-24T02:16:12.764Z,95.00
2018-07-24T02:21:15.934Z,94.90
2018-07-24T02:26:19.101Z,95.30
2018-07-24T02:31:22.355Z,95.70
2018-07-24T02:36:25.601Z,95.40
2018-07-24T02:41:28.942Z,95.50
2018-07-24T02:46:32.163Z,95.30
2018-07-24T02:51:37.357Z,95.30
2018-07-24T02:56:40.541Z,95.60
2018-07-24T03:01:43.757Z,95.70
2018-07-24T03:06:46.919Z,95.60
2018-07-24T03:11:50.118Z,95.70
2018-07-24T03:16:53.343Z,95.70
2018-07-24T03:21:56.626Z,95.80
2018-07-24T03:26:59.854Z,95.80
2018-07-24T03:32:03.039Z,96.20
2018-07-24T03:37:06.222Z,95.90
2018-07-24T03:42:09.408Z,96.10
2018-07-24T03:47:12.611Z,96.10
2018-07-24T03:52:15.889Z,95.90
2018-07-24T03:57:19.045Z,96.10
2018-07-24T04:02:22.288Z,96.00
2018-07-24T04:07:25.491Z,95.90
2018-07-24T04:12:28.686Z,95.90
2018-07-24T04:17:32.961Z,96.00
2018-07-24T04:22:36.178Z,96.00
2018-07-24T04:32:42.386Z,96.10
2018-07-24T04:37:45.579Z,96.20
2018-07-24T04:42:48.767Z,96.20
2018-07-24T04:47:52.010Z,96.30
2018-07-24T04:52:55.167Z,96.20
2018-07-24T04:57:58.322Z,96.20
2018-07-24T05:03:02.531Z,96.10
2018-07-24T05:08:09.558Z,96.10
2018-07-24T05:13:12.758Z,95.70
2018-07-24T05:18:15.973Z,95.70
2018-07-24T05:28:22.063Z,95.70
2018-07-24T05:33:25.286Z,95.60
2018-07-24T05:38:28.493Z,94.90
2018-07-24T05:43:31.646Z,94.60
2018-07-24T05:48:34.851Z,94.00
2018-07-24T05:53:39.347Z,94.00
2018-07-24T05:58:42.525Z,93.80
2018-07-24T06:03:45.774Z,93.80
2018-07-24T06:08:48.946Z,93.60
2018-07-24T06:13:52.213Z,93.30
2018-07-24T06:18:55.358Z,93.00
2018-07-24T06:23:58.526Z,92.90
2018-07-24T06:29:01.710Z,93.10
2018-07-24T06:34:04.886Z,92.80
2018-07-24T06:39:10.113Z,93.30
2018-07-24T06:44:13.376Z,93.30
2018-07-24T06:49:16.476Z,93.50
2018-07-24T06:54:19.642Z,93.10
2018-07-24T06:59:22.922Z,92.40
2018-07-24T07:04:26.147Z,92.90
2018-07-24T07:09:29.351Z,92.40
2018-07-24T07:14:32.608Z,91.90
2018-07-24T07:19:35.858Z,92.60
2018-07-24T07:24:40.114Z,92.50
2018-07-24T07:29:43.277Z,91.60
2018-07-24T07:34:46.542Z,89.80
2018-07-24T07:44:52.758Z,88.20
2018-07-24T07:49:57.977Z,88.10
2018-07-24T07:55:01.782Z,86.50
2018-07-24T08:00:09.170Z,83.60
2018-07-24T08:05:12.371Z,79.70
2018-07-24T08:10:15.558Z,79.10
2018-07-24T08:15:18.776Z,77.90
2018-07-24T08:20:21.919Z,77.90
2018-07-24T08:25:25.194Z,76.80
2018-07-24T08:30:28.354Z,77.20
2018-07-24T08:35:31.589Z,75.50
2018-07-24T08:40:35.247Z,75.80
2018-07-24T08:45:38.465Z,72.00
2018-07-24T08:50:41.646Z,72.00
2018-07-24T08:55:45.827Z,69.30
2018-07-24T09:00:48.900Z,70.30
2018-07-24T09:05:52.084Z,68.40
2018-07-24T09:10:55.289Z,66.20
2018-07-24T09:15:58.486Z,69.40
2018-07-24T09:21:02.509Z,69.70
2018-07-24T09:26:05.922Z,67.10
2018-07-24T09:31:09.610Z,65.60
2018-07-24T09:36:13.807Z,67.00
2018-07-24T09:41:17.054Z,66.00
2018-07-24T09:46:21.096Z,68.30
2018-07-24T09:51:24.367Z,64.90
2018-07-24T09:56:27.699Z,65.50
2018-07-24T10:01:33.750Z,64.10
2018-07-24T10:06:37.006Z,61.60
2018-07-24T10:11:40.302Z,59.60
2018-07-24T10:16:44.583Z,61.30
2018-07-24T10:21:48.041Z,62.10
2018-07-24T10:26:51.238Z,60.70
2018-07-24T10:31:54.470Z,58.40
2018-07-24T10:36:57.731Z,60.00
2018-07-24T10:42:00.953Z,58.90
2018-07-24T10:47:04.182Z,57.10
2018-07-24T10:52:07.395Z,58.90
2018-07-24T10:57:10.586Z,57.00
2018-07-24T11:02:14.792Z,56.00
2018-07-24T11:07:18.157Z,57.10
2018-07-24T11:12:23.558Z,55.60
2018-07-24T11:17:27.846Z,55.60
2018-07-24T11:22:31.077Z,55.40
2018-07-24T11:27:34.337Z,55.00
2018-07-24T11:32:37.560Z,55.00
2018-07-24T11:37:40.754Z,55.60
2018-07-24T11:42:44.608Z,53.50
2018-07-24T11:47:47.889Z,51.20
2018-07-24T11:52:51.114Z,54.10
2018-07-24T11:57:55.198Z,50.40
2018-07-24T12:02:59.230Z,50.30
2018-07-24T12:08:02.540Z,50.60
2018-07-24T12:13:05.826Z,49.90
2018-07-24T12:18:09.670Z,48.90
2018-07-24T12:23:14.910Z,48.00
2018-07-24T12:28:18.078Z,47.50
2018-07-24T12:33:21.282Z,47.30
2018-07-24T12:38:24.446Z,47.20
2018-07-24T12:43:27.818Z,48.60
2018-07-24T12:48:31.074Z,47.00
2018-07-24T12:53:34.273Z,47.40
2018-07-24T12:58:37.458Z,48.00
2018-07-24T13:03:40.625Z,46.50
2018-07-24T13:08:43.833Z,48.50
2018-07-24T13:13:47.096Z,48.50
2018-07-24T13:18:50.273Z,46.80
2018-07-24T13:23:53.514Z,46.90
2018-07-24T13:33:59.938Z,47.70
2018-07-24T13:39:06.345Z,46.70
2018-07-24T13:44:09.895Z,47.50
2018-07-24T13:49:13.546Z,51.20
2018-07-24T13:54:16.746Z,50.50
2018-07-24T13:59:20.097Z,50.40
2018-07-24T14:04:23.969Z,48.50
2018-07-24T14:09:27.198Z,48.10
2018-07-24T14:14:30.424Z,48.50
2018-07-24T14:19:33.686Z,51.10
2018-07-24T14:24:37.877Z,50.70
2018-07-24T14:29:41.057Z,49.10
2018-07-24T14:34:44.502Z,46.90
2018-07-24T14:39:48.089Z,46.50
2018-07-24T14:44:51.315Z,47.20
2018-07-24T14:49:55.833Z,47.50
2018-07-24T14:54:59.481Z,46.40
2018-07-24T15:00:02.719Z,47.80
2018-07-24T15:05:06.078Z,46.40
2018-07-24T15:10:09.342Z,47.40
2018-07-24T15:15:12.554Z,47.10
2018-07-24T15:20:15.891Z,47.10
2018-07-24T15:25:20.088Z,47.70
2018-07-24T15:30:24.145Z,47.10
2018-07-24T15:35:27.455Z,46.90
2018-07-24T15:40:30.746Z,48.00
2018-07-24T15:45:33.954Z,46.20
2018-07-24T15:50:37.182Z,46.40
2018-07-24T15:55:40.535Z,47.70
2018-07-24T16:05:46.813Z,47.50
2018-07-24T16:10:50.034Z,47.20
2018-07-24T16:15:53.316Z,48.10
2018-07-24T16:20:56.486Z,47.50
2018-07-24T16:25:59.714Z,46.30
2018-07-24T16:31:02.903Z,48.10
2018-07-24T16:36:06.961Z,47.50
2018-07-24T16:41:10.101Z,47.00
2018-07-24T16:46:13.339Z,48.10
2018-07-24T16:51:16.578Z,48.10
2018-07-24T16:56:19.810Z,48.20
2018-07-24T17:01:23.171Z,52.60
2018-07-24T17:06:26.582Z,50.20
2018-07-24T17:11:29.860Z,52.80
2018-07-24T17:16:34.110Z,50.70
2018-07-24T17:21:38.307Z,50.70
2018-07-24T17:26:41.463Z,52.90
2018-07-24T17:31:44.714Z,53.10
2018-07-24T17:36:47.993Z,52.00
2018-07-24T17:41:52.260Z,53.00
2018-07-24T17:46:55.389Z,53.40
2018-07-24T17:51:58.683Z,53.90
2018-07-24T17:57:01.994Z,55.30
2018-07-24T18:02:05.396Z,58.70
2018-07-24T18:07:08.625Z,61.30
2018-07-24T18:12:11.853Z,60.70
2018-07-24T18:17:15.061Z,61.80
2018-07-24T18:22:18.372Z,62.40
2018-07-24T18:27:21.535Z,63.70
2018-07-24T18:32:24.936Z,64.40
2018-07-24T18:37:28.078Z,63.60
2018-07-24T18:42:31.262Z,63.50
2018-07-24T18:47:34.501Z,64.40
2018-07-24T18:52:37.734Z,65.10
2018-07-24T18:57:41.202Z,65.10
2018-07-24T19:02:44.522Z,67.30
2018-07-24T19:07:47.749Z,67.70
2018-07-24T19:12:52.368Z,67.40
2018-07-24T19:17:55.639Z,69.90
2018-07-24T19:22:58.837Z,72.20
2018-07-24T19:28:02.325Z,70.60
2018-07-24T19:33:05.600Z,69.80
2018-07-24T19:38:09.179Z,71.40
2018-07-24T19:43:12.378Z,71.60
2018-07-24T19:48:15.641Z,72.90
2018-07-24T19:53:18.875Z,73.70
2018-07-24T19:58:22.070Z,76.30
2018-07-24T20:03:25.334Z,76.20
2018-07-24T20:08:28.591Z,75.00
2018-07-24T20:13:33.241Z,74.80
2018-07-24T20:18:36.596Z,74.90
2018-07-24T20:23:39.861Z,75.70
2018-07-24T20:28:43.112Z,78.40
2018-07-24T20:33:46.262Z,79.40
2018-07-24T20:38:49.617Z,80.00
2018-07-24T20:43:52.806Z,81.20
2018-07-24T20:48:56.177Z,82.10
2018-07-24T20:53:59.430Z,82.60
2018-07-24T20:59:02.739Z,82.50
2018-07-24T21:04:05.949Z,81.30
2018-07-24T21:09:09.741Z,83.00
2018-07-24T21:14:12.910Z,82.40
2018-07-24T21:19:16.194Z,80.40
2018-07-24T21:24:19.485Z,83.50
2018-07-24T21:29:22.791Z,82.70
2018-07-24T21:34:26.003Z,82.00
2018-07-24T21:39:29.197Z,83.10
2018-07-24T21:44:32.401Z,83.40
2018-07-24T21:49:35.574Z,83.90
2018-07-24T21:54:38.830Z,86.00
2018-07-24T21:59:41.993Z,83.90
2018-07-24T22:04:45.249Z,83.90
2018-07-24T22:09:48.481Z,84.50
2018-07-24T22:14:51.667Z,85.60
2018-07-24T22:19:54.858Z,85.80
2018-07-24T22:24:58.052Z,87.10
2018-07-24T22:30:02.442Z,87.80
2018-07-24T22:35:05.851Z,86.80
2018-07-24T22:40:10.668Z,85.90
2018-07-24T22:45:13.857Z,86.00
2018-07-24T22:50:17.037Z,87.20
2018-07-24T22:55:20.745Z,86.90
2018-07-24T23:00:24.157Z,86.80
2018-07-24T23:05:27.334Z,88.20
2018-07-24T23:10:33.292Z,88.10
2018-07-24T23:15:36.561Z,88.40
2018-07-24T23:20:39.689Z,88.90
2018-07-24T23:25:42.877Z,88.00
2018-07-24T23:30:46.055Z,89.10
2018-07-24T23:35:49.206Z,88.80
2018-07-24T23:40:52.462Z,87.90
2018-07-24T23:45:55.708Z,88.60
2018-07-24T23:50:58.870Z,87.90
2018-07-24T23:56:03.101Z,87.20
